createdAt,value
2017-11-11T00:01:05.344Z,1011.3
2017-11-11T00:02:14.324Z,1011.31
2017-11-11T00:03:23.310Z,1011.36
2017-11-11T00:04:32.954Z,1011.31
2017-11-11T00:05:42.620Z,1011.27
2017-11-11T00:06:51.946Z,1011.3
2017-11-11T00:08:00.934Z,1011.3
2017-11-11T00:09:09.934Z,1011.29
2017-11-11T00:10:19.890Z,1011.25
2017-11-11T00:11:28.863Z,1011.28
2017-11-11T00:12:38.164Z,1011.23
2017-11-11T00:13:47.485Z,1011.18
2017-11-11T00:14:56.484Z,1011.21
2017-11-11T00:16:05.468Z,1011.17
2017-11-11T00:17:15.451Z,1011.17
2017-11-11T00:18:24.766Z,1011.2
2017-11-11T00:19:34.082Z,1011.19
2017-11-11T00:20:43.395Z,1011.15
2017-11-11T00:21:53.028Z,1011.17
2017-11-11T00:23:02.358Z,1011.17
2017-11-11T00:24:11.054Z,1011.16
2017-11-11T00:25:20.029Z,1011.14
2017-11-11T00:26:29.009Z,1011.16
2017-11-11T00:27:38.643Z,1011.12
2017-11-11T00:28:47.615Z,1011.14
2017-11-11T00:29:56.583Z,1011.22
2017-11-11T00:31:05.916Z,1011.18
2017-11-11T00:32:15.285Z,1011.13
2017-11-11T00:33:24.590Z,1011.17
2017-11-11T00:34:33.553Z,1011.17
2017-11-11T00:35:42.525Z,1011.09
2017-11-11T00:36:52.156Z,1011.12
2017-11-11T00:38:01.448Z,1011.14
2017-11-11T00:39:11.085Z,1011.07
2017-11-11T00:40:20.068Z,1011.06
2017-11-11T00:41:29.374Z,1011.07
2017-11-11T00:42:38.693Z,1011.06
2017-11-11T00:43:48.330Z,1011.05
2017-11-11T00:44:57.632Z,1011.06
2017-11-11T00:46:07.612Z,1011.05
2017-11-11T00:47:17.574Z,1011.1
2017-11-11T00:48:27.559Z,1011.05
2017-11-11T00:49:36.525Z,1011.06
2017-11-11T00:50:46.176Z,1011.12
2017-11-11T00:51:55.575Z,1011.16
2017-11-11T00:53:05.552Z,1011.15
2017-11-11T00:54:14.847Z,1011.09
2017-11-11T00:55:24.484Z,1011.04
2017-11-11T00:56:33.454Z,1011.08
2017-11-11T00:57:42.447Z,1011.04
2017-11-11T00:58:51.756Z,1010.99
2017-11-11T01:00:00.413Z,1010.98
2017-11-11T01:01:10.390Z,1011.01
2017-11-11T01:02:19.353Z,1010.94
2017-11-11T01:03:28.985Z,1011.01
2017-11-11T01:04:37.960Z,1010.99
2017-11-11T01:05:47.613Z,1010.98
2017-11-11T01:06:57.252Z,1010.97
2017-11-11T01:08:06.563Z,1011.01
2017-11-11T01:09:15.906Z,1010.95
2017-11-11T01:10:25.531Z,1010.99
2017-11-11T01:11:34.523Z,1010.93
2017-11-11T01:12:43.159Z,1010.88
2017-11-11T01:13:52.473Z,1010.9
2017-11-11T01:15:01.795Z,1010.89
2017-11-11T01:16:10.793Z,1010.89
2017-11-11T01:17:20.432Z,1010.89
2017-11-11T01:18:30.064Z,1010.88
2017-11-11T01:19:40.024Z,1010.84
2017-11-11T01:20:49.359Z,1010.77
2017-11-11T01:21:58.651Z,1010.77
2017-11-11T01:23:07.639Z,1010.76
2017-11-11T01:24:16.281Z,1010.73
2017-11-11T01:25:24.921Z,1010.76
2017-11-11T01:26:33.903Z,1010.73
2017-11-11T01:27:43.195Z,1010.74
2017-11-11T01:28:53.161Z,1010.73
2017-11-11T01:30:02.140Z,1010.71
2017-11-11T01:31:11.775Z,1010.71
2017-11-11T01:32:21.092Z,1010.72
2017-11-11T01:33:30.717Z,1010.75
2017-11-11T01:34:40.349Z,1010.8
2017-11-11T01:35:49.977Z,1010.79
2017-11-11T01:36:59.332Z,1010.76
2017-11-11T01:38:07.967Z,1010.73
2017-11-11T01:39:17.281Z,1010.71
2017-11-11T01:40:26.609Z,1010.64
2017-11-11T01:41:36.592Z,1010.64
2017-11-11T01:42:46.214Z,1010.61
2017-11-11T01:43:54.876Z,1010.56
2017-11-11T01:45:04.842Z,1010.58
2017-11-11T01:46:14.471Z,1010.6
2017-11-11T01:47:23.113Z,1010.53
2017-11-11T01:48:32.085Z,1010.53
2017-11-11T01:49:41.423Z,1010.6
2017-11-11T01:50:51.057Z,1010.61
2017-11-11T01:52:00.361Z,1010.61
2017-11-11T01:53:09.657Z,1010.58
2017-11-11T01:54:18.969Z,1010.54
2017-11-11T01:55:27.608Z,1010.56
2017-11-11T01:56:36.578Z,1010.56
2017-11-11T01:57:45.923Z,1010.51
2017-11-11T01:58:55.924Z,1010.48
2017-11-11T02:00:04.905Z,1010.46
2017-11-11T02:01:14.552Z,1010.45
2017-11-11T02:02:23.867Z,1010.44
2017-11-11T02:03:33.151Z,1010.47
2017-11-11T02:04:42.456Z,1010.45
2017-11-11T02:05:51.422Z,1010.45
2017-11-11T02:07:01.371Z,1010.39
2017-11-11T02:08:10.342Z,1010.42
2017-11-11T02:09:19.643Z,1010.41
2017-11-11T02:10:29.280Z,1010.4
2017-11-11T02:11:38.583Z,1010.4
2017-11-11T02:12:48.216Z,1010.35
2017-11-11T02:13:57.515Z,1010.36
2017-11-11T02:15:06.503Z,1010.38
2017-11-11T02:16:15.478Z,1010.34
2017-11-11T02:17:24.117Z,1010.35
2017-11-11T02:18:33.434Z,1010.31
2017-11-11T02:19:42.406Z,1010.28
2017-11-11T02:20:52.026Z,1010.26
2017-11-11T02:22:00.677Z,1010.31
2017-11-11T02:23:10.638Z,1010.27
2017-11-11T02:24:19.946Z,1010.28
2017-11-11T02:25:28.940Z,1010.3
2017-11-11T02:26:38.573Z,1010.23
2017-11-11T02:27:47.555Z,1010.17
2017-11-11T02:28:56.849Z,1010.18
2017-11-11T02:30:06.496Z,1010.25
2017-11-11T02:31:16.148Z,1010.23
2017-11-11T02:32:26.100Z,1010.24
2017-11-11T02:33:36.066Z,1010.27
2017-11-11T02:34:46.043Z,1010.26
2017-11-11T02:35:55.671Z,1010.27
2017-11-11T02:37:05.293Z,1010.24
2017-11-11T02:38:14.594Z,1010.29
2017-11-11T02:39:23.900Z,1010.26
2017-11-11T02:40:32.867Z,1010.25
2017-11-11T02:41:42.162Z,1010.3
2017-11-11T02:42:52.127Z,1010.26
2017-11-11T02:44:01.742Z,1010.28
2017-11-11T02:45:12.054Z,1010.23
2017-11-11T02:46:21.556Z,1010.21
2017-11-11T02:47:31.187Z,1010.16
2017-11-11T02:48:40.158Z,1010.12
2017-11-11T02:49:49.451Z,1010.07
2017-11-11T02:50:58.763Z,1010.12
2017-11-11T02:52:08.081Z,1010.07
2017-11-11T02:53:17.374Z,1010.07
2017-11-11T02:54:26.689Z,1010.03
2017-11-11T02:55:36.969Z,1010.08
2017-11-11T02:56:46.610Z,1010.11
2017-11-11T02:57:55.911Z,1010.09
2017-11-11T02:59:05.235Z,1010.07
2017-11-11T03:00:15.208Z,1010.07
2017-11-11T03:01:24.860Z,1009.99
2017-11-11T03:02:34.507Z,1009.96
2017-11-11T03:03:44.130Z,1009.94
2017-11-11T03:04:53.770Z,1009.93
2017-11-11T03:06:03.734Z,1009.87
2017-11-11T03:07:13.374Z,1009.88
2017-11-11T03:08:23.029Z,1009.92
2017-11-11T03:09:32.658Z,1009.79
2017-11-11T03:10:42.601Z,1009.75
2017-11-11T03:11:52.239Z,1009.82
2017-11-11T03:13:02.263Z,1009.81
2017-11-11T03:14:11.886Z,1009.81
2017-11-11T03:15:21.521Z,1009.77
2017-11-11T03:16:30.821Z,1009.79
2017-11-11T03:17:39.782Z,1009.77
2017-11-11T03:18:49.415Z,1009.69
2017-11-11T03:19:59.712Z,1009.72
2017-11-11T03:21:08.676Z,1009.7
2017-11-11T03:22:17.963Z,1009.69
2017-11-11T03:23:26.945Z,1009.69
2017-11-11T03:24:36.622Z,1009.73
2017-11-11T03:25:46.276Z,1009.64
2017-11-11T03:26:54.911Z,1009.67
2017-11-11T03:28:05.206Z,1009.62
2017-11-11T03:29:14.521Z,1009.6
2017-11-11T03:30:23.507Z,1009.55
2017-11-11T03:31:32.830Z,1009.51
2017-11-11T03:32:42.477Z,1009.45
2017-11-11T03:33:51.785Z,1009.36
2017-11-11T03:35:01.436Z,1009.27
2017-11-11T03:36:10.736Z,1009.33
2017-11-11T03:37:20.371Z,1009.41
2017-11-11T03:38:30.343Z,1009.41
2017-11-11T03:39:39.628Z,1009.44
2017-11-11T03:40:49.589Z,1009.46
2017-11-11T03:41:58.878Z,1009.45
2017-11-11T03:43:07.842Z,1009.46
2017-11-11T03:44:17.495Z,1009.42
2017-11-11T03:45:26.481Z,1009.39
2017-11-11T03:46:35.785Z,1009.35
2017-11-11T03:47:45.090Z,1009.32
2017-11-11T03:48:55.050Z,1009.27
2017-11-11T03:50:04.724Z,1009.25
2017-11-11T03:51:14.060Z,1009.21
2017-11-11T03:52:23.028Z,1009.23
2017-11-11T03:53:31.997Z,1009.22
2017-11-11T03:54:40.985Z,1009.24
2017-11-11T03:55:50.953Z,1009.27
2017-11-11T03:57:00.586Z,1009.23
2017-11-11T03:58:09.892Z,1009.24
2017-11-11T03:59:19.867Z,1009.21
2017-11-11T04:00:28.840Z,1009.25
2017-11-11T04:01:38.785Z,1009.21
2017-11-11T04:02:48.108Z,1009.2
2017-11-11T04:03:57.097Z,1009.2
2017-11-11T04:05:06.712Z,1009.23
2017-11-11T04:06:15.672Z,1009.23
2017-11-11T04:07:25.654Z,1009.24
2017-11-11T04:08:35.634Z,1009.24
2017-11-11T04:09:44.980Z,1009.25
2017-11-11T04:10:54.286Z,1009.21
2017-11-11T04:12:03.249Z,1009.18
2017-11-11T04:13:12.575Z,1009.16
2017-11-11T04:14:22.212Z,1009.21
2017-11-11T04:15:31.173Z,1009.19
2017-11-11T04:16:40.165Z,1009.2
2017-11-11T04:17:49.135Z,1009.14
2017-11-11T04:18:59.101Z,1009.03
2017-11-11T04:20:08.399Z,1009.01
2017-11-11T04:21:17.374Z,1009.01
2017-11-11T04:22:26.685Z,1008.94
2017-11-11T04:23:35.633Z,1008.91
2017-11-11T04:24:44.955Z,1008.95
2017-11-11T04:25:54.262Z,1008.89
2017-11-11T04:27:03.228Z,1008.93
2017-11-11T04:28:12.196Z,1008.87
2017-11-11T04:29:21.183Z,1008.86
2017-11-11T04:30:30.174Z,1008.88
2017-11-11T04:31:39.155Z,1008.88
2017-11-11T04:32:48.456Z,1008.82
2017-11-11T04:33:57.100Z,1008.8
2017-11-11T04:35:06.397Z,1008.83
2017-11-11T04:36:16.357Z,1008.87
2017-11-11T04:37:25.656Z,1008.88
2017-11-11T04:38:35.300Z,1008.85
2017-11-11T04:39:44.599Z,1008.85
2017-11-11T04:40:54.230Z,1008.81
2017-11-11T04:42:04.175Z,1008.78
2017-11-11T04:43:13.142Z,1008.79
2017-11-11T04:44:21.778Z,1008.78
2017-11-11T04:45:31.072Z,1008.8
2017-11-11T04:46:40.404Z,1008.84
2017-11-11T04:47:49.675Z,1008.82
2017-11-11T04:48:59.633Z,1008.8
2017-11-11T04:50:08.932Z,1008.75
2017-11-11T04:51:18.238Z,1008.72
2017-11-11T04:52:27.877Z,1008.73
2017-11-11T04:53:37.517Z,1008.78
2017-11-11T04:54:46.824Z,1008.71
2017-11-11T04:55:56.161Z,1008.68
2017-11-11T04:57:06.460Z,1008.67
2017-11-11T04:58:16.080Z,1008.72
2017-11-11T04:59:25.077Z,1008.71
2017-11-11T05:00:34.699Z,1008.7
2017-11-11T05:01:43.669Z,1008.69
2017-11-11T05:02:52.316Z,1008.69
2017-11-11T05:04:01.308Z,1008.67
2017-11-11T05:05:09.975Z,1008.7
2017-11-11T05:06:19.285Z,1008.7
2017-11-11T05:07:28.918Z,1008.68
2017-11-11T05:08:38.893Z,1008.67
2017-11-11T05:09:47.864Z,1008.66
2017-11-11T05:10:56.845Z,1008.61
2017-11-11T05:12:06.185Z,1008.63
2017-11-11T05:13:15.478Z,1008.63
2017-11-11T05:14:24.449Z,1008.63
2017-11-11T05:15:34.095Z,1008.59
2017-11-11T05:16:43.411Z,1008.6
2017-11-11T05:17:53.387Z,1008.59
2017-11-11T05:19:02.673Z,1008.56
2017-11-11T05:20:11.986Z,1008.54
2017-11-11T05:21:21.960Z,1008.53
2017-11-11T05:22:30.600Z,1008.53
2017-11-11T05:23:40.257Z,1008.52
2017-11-11T05:24:49.247Z,1008.48
2017-11-11T05:25:58.907Z,1008.47
2017-11-11T05:27:07.884Z,1008.43
2017-11-11T05:28:17.180Z,1008.42
2017-11-11T05:29:26.487Z,1008.38
2017-11-11T05:30:35.773Z,1008.39
2017-11-11T05:31:45.738Z,1008.39
2017-11-11T05:32:55.034Z,1008.37
2017-11-11T05:34:03.997Z,1008.29
2017-11-11T05:35:12.957Z,1008.28
2017-11-11T05:36:21.597Z,1008.31
2017-11-11T05:37:31.238Z,1008.33
2017-11-11T05:38:40.596Z,1008.29
2017-11-11T05:39:50.577Z,1008.27
2017-11-11T05:40:59.240Z,1008.27
2017-11-11T05:42:08.916Z,1008.23
2017-11-11T05:43:18.544Z,1008.19
2017-11-11T05:44:28.191Z,1008.17
2017-11-11T05:45:37.825Z,1008.19
2017-11-11T05:46:47.780Z,1008.15
2017-11-11T05:47:56.756Z,1008.14
2017-11-11T05:49:06.048Z,1008.12
2017-11-11T05:50:15.347Z,1008.05
2017-11-11T05:51:24.318Z,1008.05
2017-11-11T05:52:32.959Z,1008
2017-11-11T05:53:42.253Z,1007.98
2017-11-11T05:54:51.227Z,1007.99
2017-11-11T05:56:00.543Z,1007.97
2017-11-11T05:57:09.844Z,1008
2017-11-11T05:58:19.144Z,1007.97
2017-11-11T05:59:28.465Z,1007.94
2017-11-11T06:00:37.436Z,1007.94
2017-11-11T06:01:46.739Z,1007.9
2017-11-11T06:02:56.050Z,1007.81
2017-11-11T06:04:05.680Z,1007.84
2017-11-11T06:05:14.658Z,1007.85
2017-11-11T06:06:23.300Z,1007.84
2017-11-11T06:07:33.574Z,1007.85
2017-11-11T06:08:42.548Z,1007.84
2017-11-11T06:09:51.849Z,1007.84
2017-11-11T06:11:00.833Z,1007.82
2017-11-11T06:12:09.793Z,1007.81
2017-11-11T06:13:18.800Z,1007.79
2017-11-11T06:14:28.109Z,1007.83
2017-11-11T06:15:37.407Z,1007.83
2017-11-11T06:16:46.723Z,1007.84
2017-11-11T06:17:56.392Z,1007.84
2017-11-11T06:19:06.062Z,1007.84
2017-11-11T06:20:16.019Z,1007.85
2017-11-11T06:21:25.378Z,1007.87
2017-11-11T06:22:35.023Z,1007.87
2017-11-11T06:23:44.655Z,1007.85
2017-11-11T06:24:54.289Z,1007.84
2017-11-11T06:26:04.281Z,1007.84
2017-11-11T06:27:13.918Z,1007.79
2017-11-11T06:28:23.209Z,1007.83
2017-11-11T06:29:32.195Z,1007.81
2017-11-11T06:30:41.823Z,1007.82
2017-11-11T06:31:51.456Z,1007.77
2017-11-11T06:33:00.428Z,1007.75
2017-11-11T06:34:10.084Z,1007.7
2017-11-11T06:35:19.752Z,1007.67
2017-11-11T06:36:29.064Z,1007.68
2017-11-11T06:37:38.432Z,1007.63
2017-11-11T06:38:48.091Z,1007.63
2017-11-11T06:39:57.061Z,1007.6
2017-11-11T06:41:06.692Z,1007.66
2017-11-11T06:42:16.346Z,1007.6
2017-11-11T06:43:25.996Z,1007.57
2017-11-11T06:44:35.001Z,1007.52
2017-11-11T06:45:44.306Z,1007.53
2017-11-11T06:46:53.606Z,1007.47
2017-11-11T06:48:02.268Z,1007.48
2017-11-11T06:49:12.222Z,1007.47
2017-11-11T06:50:21.924Z,1007.42
2017-11-11T06:51:31.233Z,1007.43
2017-11-11T06:52:41.185Z,1007.41
2017-11-11T06:53:50.816Z,1007.4
2017-11-11T06:55:00.783Z,1007.42
2017-11-11T06:56:09.752Z,1007.38
2017-11-11T06:57:18.799Z,1007.43
2017-11-11T06:58:28.423Z,1007.44
2017-11-11T06:59:37.726Z,1007.44
2017-11-11T07:00:47.043Z,1007.47
2017-11-11T07:01:56.710Z,1007.46
2017-11-11T07:03:05.977Z,1007.47
2017-11-11T07:04:15.458Z,1007.41
2017-11-11T07:05:24.752Z,1007.39
2017-11-11T07:06:33.726Z,1007.32
2017-11-11T07:07:42.390Z,1007.32
2017-11-11T07:08:51.696Z,1007.32
2017-11-11T07:10:01.109Z,1007.26
2017-11-11T07:11:10.414Z,1007.28
2017-11-11T07:12:20.045Z,1007.26
2017-11-11T07:13:29.753Z,1007.22
2017-11-11T07:14:39.063Z,1007.21
2017-11-11T07:15:48.370Z,1007.26
2017-11-11T07:16:57.676Z,1007.29
2017-11-11T07:18:06.993Z,1007.25
2017-11-11T07:19:17.036Z,1007.23
2017-11-11T07:20:27.066Z,1007.25
2017-11-11T07:21:37.121Z,1007.29
2017-11-11T07:22:46.111Z,1007.26
2017-11-11T07:23:55.732Z,1007.26
2017-11-11T07:25:05.698Z,1007.26
2017-11-11T07:26:14.335Z,1007.27
2017-11-11T07:27:23.658Z,1007.31
2017-11-11T07:28:32.652Z,1007.33
2017-11-11T07:29:42.285Z,1007.38
2017-11-11T07:30:51.999Z,1007.4
2017-11-11T07:32:01.293Z,1007.36
2017-11-11T07:33:11.026Z,1007.34
2017-11-11T07:34:20.021Z,1007.4
2017-11-11T07:35:29.354Z,1007.36
2017-11-11T07:36:38.339Z,1007.33
2017-11-11T07:37:47.362Z,1007.26
2017-11-11T07:38:56.652Z,1007.22
2017-11-11T07:40:05.952Z,1007.24
2017-11-11T07:41:14.927Z,1007.17
2017-11-11T07:42:24.558Z,1007.18
2017-11-11T07:43:34.535Z,1007.12
2017-11-11T07:44:43.507Z,1007.16
2017-11-11T07:45:52.845Z,1007.11
2017-11-11T07:47:02.157Z,1007.16
2017-11-11T07:48:11.140Z,1007.15
2017-11-11T07:49:20.115Z,1007.15
2017-11-11T07:50:29.750Z,1007.13
2017-11-11T07:51:38.722Z,1007.13
2017-11-11T07:52:48.373Z,1007.17
2017-11-11T07:53:58.378Z,1007.09
2017-11-11T07:55:08.048Z,1007.16
2017-11-11T07:56:17.053Z,1007.16
2017-11-11T07:57:26.371Z,1007.12
2017-11-11T07:58:35.687Z,1007.18
2017-11-11T07:59:44.691Z,1007.09
2017-11-11T08:00:54.356Z,1007.05
2017-11-11T08:02:03.992Z,1007.05
2017-11-11T08:03:13.614Z,1007.01
2017-11-11T08:04:23.266Z,1006.98
2017-11-11T08:05:32.938Z,1006.96
2017-11-11T08:06:42.204Z,1006.96
2017-11-11T08:07:51.897Z,1006.99
2017-11-11T08:09:01.186Z,1007.02
2017-11-11T08:10:10.869Z,1007.03
2017-11-11T08:11:19.852Z,1007.04
2017-11-11T08:12:29.151Z,1007.02
2017-11-11T08:13:38.184Z,1007.04
2017-11-11T08:14:47.809Z,1007.01
2017-11-11T08:15:57.439Z,1007.04
2017-11-11T08:17:06.431Z,1007.02
2017-11-11T08:18:15.740Z,1007.03
2017-11-11T08:19:24.437Z,1007.01
2017-11-11T08:20:33.763Z,1006.97
2017-11-11T08:21:42.773Z,1007.04
2017-11-11T08:22:52.393Z,1007.03
2017-11-11T08:24:02.030Z,1007.01
2017-11-11T08:25:10.676Z,1007.03
2017-11-11T08:26:19.998Z,1007.03
2017-11-11T08:27:29.310Z,1006.97
2017-11-11T08:28:38.604Z,1006.95
2017-11-11T08:29:47.606Z,1007.02
2017-11-11T08:30:57.241Z,1007
2017-11-11T08:32:06.890Z,1006.98
2017-11-11T08:33:15.551Z,1006.97
2017-11-11T08:34:25.191Z,1006.91
2017-11-11T08:35:33.848Z,1006.96
2017-11-11T08:36:43.492Z,1006.95
2017-11-11T08:37:52.465Z,1006.89
2017-11-11T08:39:01.492Z,1006.87
2017-11-11T08:40:10.504Z,1006.87
2017-11-11T08:41:20.168Z,1006.91
2017-11-11T08:42:29.153Z,1006.92
2017-11-11T08:43:38.780Z,1006.85
2017-11-11T08:44:48.426Z,1006.89
2017-11-11T08:45:58.132Z,1006.8
2017-11-11T08:47:07.451Z,1006.8
2017-11-11T08:48:16.762Z,1006.75
2017-11-11T08:49:26.424Z,1006.77
2017-11-11T08:50:35.719Z,1006.76
2017-11-11T08:51:45.053Z,1006.77
2017-11-11T08:52:55.033Z,1006.67
2017-11-11T08:54:04.413Z,1006.65
2017-11-11T08:55:14.274Z,1006.62
2017-11-11T08:56:23.911Z,1006.59
2017-11-11T08:57:32.902Z,1006.56
2017-11-11T08:58:41.885Z,1006.59
2017-11-11T08:59:51.516Z,1006.56
2017-11-11T09:01:00.825Z,1006.54
2017-11-11T09:02:09.795Z,1006.57
2017-11-11T09:03:20.088Z,1006.56
2017-11-11T09:04:30.047Z,1006.51
2017-11-11T09:05:40.001Z,1006.48
2017-11-11T09:06:49.977Z,1006.46
2017-11-11T09:07:59.619Z,1006.46
2017-11-11T09:09:08.912Z,1006.41
2017-11-11T09:10:18.293Z,1006.44
2017-11-11T09:11:27.611Z,1006.43
2017-11-11T09:12:37.596Z,1006.46
2017-11-11T09:13:47.545Z,1006.34
2017-11-11T09:14:57.555Z,1006.32
2017-11-11T09:16:06.861Z,1006.32
2017-11-11T09:17:16.597Z,1006.31
2017-11-11T09:18:26.299Z,1006.26
2017-11-11T09:19:34.976Z,1006.27
2017-11-11T09:20:43.643Z,1006.24
2017-11-11T09:21:53.011Z,1006.22
2017-11-11T09:23:02.665Z,1006.23
2017-11-11T09:24:11.638Z,1006.22
2017-11-11T09:25:21.326Z,1006.18
2017-11-11T09:26:29.987Z,1006.16
2017-11-11T09:27:39.314Z,1006.13
2017-11-11T09:28:48.632Z,1006.12
2017-11-11T09:29:58.948Z,1006.04
2017-11-11T09:31:08.636Z,1006.04
2017-11-11T09:32:18.331Z,1006
2017-11-11T09:33:27.639Z,1005.96
2017-11-11T09:34:36.967Z,1005.95
2017-11-11T09:35:46.627Z,1005.98
2017-11-11T09:36:55.946Z,1006
2017-11-11T09:38:05.595Z,1005.96
2017-11-11T09:39:14.995Z,1005.95
2017-11-11T09:40:24.334Z,1005.9
2017-11-11T09:41:33.341Z,1005.89
2017-11-11T09:42:42.639Z,1005.89
2017-11-11T09:43:51.967Z,1005.9
2017-11-11T09:45:01.597Z,1005.86
2017-11-11T09:46:10.923Z,1005.84
2017-11-11T09:47:20.944Z,1005.84
2017-11-11T09:48:30.597Z,1005.82
2017-11-11T09:49:39.592Z,1005.77
2017-11-11T09:50:48.625Z,1005.7
2017-11-11T09:51:58.344Z,1005.7
2017-11-11T09:53:07.697Z,1005.61
2017-11-11T09:54:16.710Z,1005.57
2017-11-11T09:55:25.707Z,1005.52
2017-11-11T09:56:35.363Z,1005.5
2017-11-11T09:57:45.016Z,1005.5
2017-11-11T09:58:55.129Z,1005.44
2017-11-11T10:00:04.481Z,1005.42
2017-11-11T10:01:14.221Z,1005.39
2017-11-11T10:02:23.580Z,1005.38
2017-11-11T10:03:33.278Z,1005.38
2017-11-11T10:04:43.016Z,1005.35
2017-11-11T10:05:52.689Z,1005.28
2017-11-11T10:07:02.130Z,1005.31
2017-11-11T10:08:11.761Z,1005.28
2017-11-11T10:09:21.111Z,1005.27
2017-11-11T10:10:30.466Z,1005.24
2017-11-11T10:11:40.108Z,1005.22
2017-11-11T10:12:49.751Z,1005.2
2017-11-11T10:13:59.401Z,1005.21
2017-11-11T10:15:08.048Z,1005.17
2017-11-11T10:16:17.017Z,1005.15
2017-11-11T10:17:26.983Z,1005.14
2017-11-11T10:18:36.310Z,1005.09
2017-11-11T10:19:45.961Z,1005.08
2017-11-11T10:20:54.945Z,1005.07
2017-11-11T10:22:03.943Z,1005.04
2017-11-11T10:23:12.924Z,1005.02
2017-11-11T10:24:21.897Z,1005.01
2017-11-11T10:25:30.873Z,1005
2017-11-11T10:26:39.857Z,1005
2017-11-11T10:27:48.823Z,1004.98
2017-11-11T10:28:58.519Z,1004.91
2017-11-11T10:30:07.566Z,1004.93
2017-11-11T10:31:17.588Z,1004.91
2017-11-11T10:32:26.970Z,1004.86
2017-11-11T10:33:36.455Z,1004.87
2017-11-11T10:34:45.775Z,1004.85
2017-11-11T10:35:54.750Z,1004.84
2017-11-11T10:37:04.383Z,1004.82
2017-11-11T10:38:14.058Z,1004.87
2017-11-11T10:39:24.366Z,1004.85
2017-11-11T10:40:34.458Z,1004.79
2017-11-11T10:41:43.736Z,1004.77
2017-11-11T10:42:54.153Z,1004.8
2017-11-11T10:44:03.808Z,1004.74
2017-11-11T10:45:12.857Z,1004.71
2017-11-11T10:46:22.822Z,1004.7
2017-11-11T10:47:32.144Z,1004.71
2017-11-11T10:48:41.469Z,1004.63
2017-11-11T10:49:50.776Z,1004.6
2017-11-11T10:51:00.067Z,1004.57
2017-11-11T10:52:09.710Z,1004.5
2017-11-11T10:53:19.026Z,1004.5
2017-11-11T10:54:28.327Z,1004.48
2017-11-11T10:55:38.012Z,1004.47
2017-11-11T10:56:47.665Z,1004.4
2017-11-11T10:57:56.640Z,1004.42
2017-11-11T10:59:05.964Z,1004.42
2017-11-11T11:00:15.310Z,1004.35
2017-11-11T11:01:24.935Z,1004.34
2017-11-11T11:02:34.586Z,1004.28
2017-11-11T11:03:43.894Z,1004.29
2017-11-11T11:04:53.209Z,1004.28
2017-11-11T11:06:02.514Z,1004.22
2017-11-11T11:07:11.833Z,1004.18
2017-11-11T11:08:21.189Z,1004.15
2017-11-11T11:09:30.505Z,1004.16
2017-11-11T11:10:40.473Z,1004.12
2017-11-11T11:11:50.454Z,1004.11
2017-11-11T11:12:59.757Z,1004.04
2017-11-11T11:14:08.402Z,1004.04
2017-11-11T11:15:17.054Z,1004.02
2017-11-11T11:16:25.696Z,1003.98
2017-11-11T11:17:35.008Z,1003.98
2017-11-11T11:18:44.315Z,1004.01
2017-11-11T11:19:53.970Z,1003.96
2017-11-11T11:21:03.300Z,1003.97
2017-11-11T11:22:13.008Z,1003.96
2017-11-11T11:23:22.682Z,1003.94
2017-11-11T11:24:31.681Z,1003.89
2017-11-11T11:25:41.022Z,1003.84
2017-11-11T11:26:51.046Z,1003.83
2017-11-11T11:28:00.372Z,1003.79
2017-11-11T11:29:09.342Z,1003.78
2017-11-11T11:30:19.315Z,1003.77
2017-11-11T11:31:28.640Z,1003.72
2017-11-11T11:32:38.596Z,1003.7
2017-11-11T11:33:47.243Z,1003.72
2017-11-11T11:34:57.198Z,1003.69
2017-11-11T11:36:06.499Z,1003.66
2017-11-11T11:37:16.464Z,1003.56
2017-11-11T11:38:25.787Z,1003.58
2017-11-11T11:39:35.093Z,1003.57
2017-11-11T11:40:45.065Z,1003.52
2017-11-11T11:41:55.017Z,1003.49
2017-11-11T11:43:03.676Z,1003.47
2017-11-11T11:44:13.299Z,1003.42
2017-11-11T11:45:22.925Z,1003.46
2017-11-11T11:46:32.237Z,1003.39
2017-11-11T11:47:41.883Z,1003.35
2017-11-11T11:48:51.369Z,1003.31
2017-11-11T11:50:00.676Z,1003.29
2017-11-11T11:51:10.700Z,1003.25
2017-11-11T11:52:20.425Z,1003.27
2017-11-11T11:53:29.785Z,1003.24
2017-11-11T11:54:39.161Z,1003.24
2017-11-11T11:55:48.505Z,1003.17
2017-11-11T11:56:57.164Z,1003.21
2017-11-11T11:58:07.216Z,1003.19
2017-11-11T11:59:16.869Z,1003.13
2017-11-11T12:00:26.191Z,1003.1
2017-11-11T12:01:36.164Z,1003.13
2017-11-11T12:02:45.798Z,1003.04
2017-11-11T12:03:55.448Z,1003.09
2017-11-11T12:05:04.757Z,1003.04
2017-11-11T12:06:14.560Z,1003.03
2017-11-11T12:07:24.165Z,1003.03
2017-11-11T12:08:33.491Z,1003.04
2017-11-11T12:09:43.479Z,1003.03
2017-11-11T12:10:53.457Z,1003.02
2017-11-11T12:12:02.781Z,1002.95
2017-11-11T12:13:12.099Z,1002.95
2017-11-11T12:14:21.772Z,1002.98
2017-11-11T12:15:30.412Z,1002.97
2017-11-11T12:16:40.062Z,1002.98
2017-11-11T12:17:49.063Z,1002.97
2017-11-11T12:18:58.372Z,1002.99
2017-11-11T12:20:07.698Z,1002.98
2017-11-11T12:21:17.679Z,1002.97
2017-11-11T12:22:27.312Z,1003.01
2017-11-11T12:23:36.307Z,1003
2017-11-11T12:24:46.411Z,1002.98
2017-11-11T12:25:57.574Z,1002.95
2017-11-11T12:27:06.902Z,1002.94
2017-11-11T12:28:16.213Z,1002.95
2017-11-11T12:29:25.522Z,1002.95
2017-11-11T12:30:34.520Z,1002.88
2017-11-11T12:31:43.854Z,1002.86
2017-11-11T12:32:53.824Z,1002.87
2017-11-11T12:34:03.130Z,1002.83
2017-11-11T12:35:12.436Z,1002.85
2017-11-11T12:36:22.089Z,1002.84
2017-11-11T12:37:32.072Z,1002.8
2017-11-11T12:38:42.028Z,1002.77
2017-11-11T12:39:51.719Z,1002.76
2017-11-11T12:41:01.029Z,1002.74
2017-11-11T12:42:10.388Z,1002.74
2017-11-11T12:43:19.362Z,1002.71
2017-11-11T12:44:28.389Z,1002.71
2017-11-11T12:45:38.028Z,1002.67
2017-11-11T12:46:47.674Z,1002.66
2017-11-11T12:47:56.973Z,1002.63
2017-11-11T12:49:06.606Z,1002.64
2017-11-11T12:50:15.580Z,1002.65
2017-11-11T12:51:25.247Z,1002.64
2017-11-11T12:52:34.224Z,1002.63
2017-11-11T12:53:43.303Z,1002.65
2017-11-11T12:54:52.643Z,1002.62
2017-11-11T12:56:02.273Z,1002.68
2017-11-11T12:57:12.275Z,1002.71
2017-11-11T12:58:21.899Z,1002.73
2017-11-11T12:59:31.861Z,1002.72
2017-11-11T13:00:40.857Z,1002.73
2017-11-11T13:01:49.884Z,1002.7
2017-11-11T13:02:59.913Z,1002.7
2017-11-11T13:04:09.896Z,1002.68
2017-11-11T13:05:19.899Z,1002.7
2017-11-11T13:06:29.561Z,1002.68
2017-11-11T13:07:39.236Z,1002.73
2017-11-11T13:08:48.233Z,1002.69
2017-11-11T13:09:57.870Z,1002.68
2017-11-11T13:11:07.222Z,1002.65
2017-11-11T13:12:17.282Z,1002.64
2017-11-11T13:13:26.637Z,1002.66
2017-11-11T13:14:35.641Z,1002.66
2017-11-11T13:15:44.298Z,1002.64
2017-11-11T13:16:53.306Z,1002.67
2017-11-11T13:18:02.651Z,1002.63
2017-11-11T13:19:12.643Z,1002.63
2017-11-11T13:20:21.954Z,1002.6
2017-11-11T13:21:31.252Z,1002.6
2017-11-11T13:22:40.243Z,1002.63
2017-11-11T13:23:49.870Z,1002.57
2017-11-11T13:24:58.853Z,1002.56
2017-11-11T13:26:08.166Z,1002.58
2017-11-11T13:27:17.157Z,1002.56
2017-11-11T13:28:26.142Z,1002.57
2017-11-11T13:29:35.132Z,1002.58
2017-11-11T13:30:44.448Z,1002.56
2017-11-11T13:31:53.464Z,1002.55
2017-11-11T13:33:02.457Z,1002.53
2017-11-11T13:34:12.451Z,1002.51
2017-11-11T13:35:21.117Z,1002.46
2017-11-11T13:36:30.443Z,1002.5
2017-11-11T13:37:40.078Z,1002.54
2017-11-11T13:38:49.064Z,1002.51
2017-11-11T13:39:58.397Z,1002.48
2017-11-11T13:41:07.702Z,1002.49
2017-11-11T13:42:16.683Z,1002.49
2017-11-11T13:43:25.989Z,1002.46
2017-11-11T13:44:34.953Z,1002.5
2017-11-11T13:45:44.926Z,1002.5
2017-11-11T13:46:54.220Z,1002.49
2017-11-11T13:48:03.532Z,1002.53
2017-11-11T13:49:12.850Z,1002.49
2017-11-11T13:50:23.138Z,1002.48
2017-11-11T13:51:32.132Z,1002.5
2017-11-11T13:52:41.770Z,1002.5
2017-11-11T13:53:51.534Z,1002.49
2017-11-11T13:55:04.657Z,1002.47
2017-11-11T13:56:17.574Z,1002.43
2017-11-11T13:57:30.175Z,1002.45
2017-11-11T13:58:39.146Z,1002.46
2017-11-11T13:59:48.189Z,1002.49
2017-11-11T14:00:57.499Z,1002.48
2017-11-11T14:02:07.464Z,1002.47
2017-11-11T14:03:17.134Z,1002.46